Terminal Aerodrome Forecast
Issued by NWS

Home | Current Version | Previous Version | Text Only | Print | Product List | Glossary On
Versions: 1 2 3 4 5 6 7 8 9 10 11 12 13 14
353
FTUS44 KMAF 010003 AAA
TAFINK
TAF AMD
KINK 010003Z 0100/0124 14013KT P6SM SCT090 BKN250
     FM010200 10007KT P6SM SCT080 BKN200
     FM011100 05008KT P6SM BKN030
     FM011600 05007KT P6SM SCT030 OVC040=

USA.gov is the U.S. government's official web portal to all federal, state and local government web resources and services.